Time;durP1;ratioP1;P1;durP2;ratioP2;P2;SDS_P1;SDS_P2;PMS_P1;PMS_P2;Temp;Humidity;BMP_temperature;BMP_pressure;BME280_temperature;BME280_humidity;BME280_pressure;Samples;Min_cycle;Max_cycle;Signal;HPM_P1;HPM_P2
2022/12/10 00:01:51;;;;;;;2.92;0.70;;;5.40;99.90;;;;;;5049304;28;20025;-82
2022/12/10 00:04:18;;;;;;;0.73;0.73;;;5.40;99.90;;;;;;5051034;28;20028;-82
2022/12/10 00:06:43;;;;;;;1.30;1.25;;;5.50;99.90;;;;;;5058776;28;20036;-82
2022/12/10 00:09:13;;;;;;;1.85;1.33;;;5.30;99.90;;;;;;5051252;28;20036;-83
2022/12/10 00:11:39;;;;;;;9.20;1.20;;;5.30;99.90;;;;;;5062409;28;20021;-82
2022/12/10 00:14:06;;;;;;;1.20;1.20;;;5.20;99.90;;;;;;5056509;28;20128;-83
2022/12/10 00:16:33;;;;;;;0.82;0.82;;;5.10;99.90;;;;;;5059225;28;20031;-82
2022/12/10 00:18:59;;;;;;;0.38;0.38;;;5.20;99.90;;;;;;5049538;28;20097;-83
2022/12/10 00:21:28;;;;;;;2.65;1.05;;;5.20;99.90;;;;;;5048645;28;20575;-82
2022/12/10 00:23:54;;;;;;;0.45;0.45;;;5.10;99.90;;;;;;5048721;28;20607;-82
2022/12/10 00:26:26;;;;;;;1.43;1.33;;;5.20;99.90;;;;;;5051389;28;20100;-82
2022/12/10 00:28:53;;;;;;;1.00;1.00;;;5.10;99.90;;;;;;5054019;28;20033;-82
2022/12/10 00:31:21;;;;;;;1.40;1.30;;;5.10;99.90;;;;;;5053779;28;20046;-83
2022/12/10 00:33:47;;;;;;;0.35;0.35;;;5.10;99.90;;;;;;5054476;28;20863;-82
2022/12/10 00:36:17;;;;;;;4.57;1.10;;;5.00;99.90;;;;;;5058243;28;20099;-82
2022/12/10 00:38:44;;;;;;;1.10;1.10;;;5.10;99.90;;;;;;5066551;28;20036;-82
2022/12/10 00:41:11;;;;;;;0.32;0.32;;;5.10;99.90;;;;;;5057471;28;20032;-82
2022/12/10 00:43:37;;;;;;;3.22;2.67;;;5.10;99.90;;;;;;5057944;28;20028;-84
2022/12/10 00:46:02;;;;;;;4.40;0.77;;;4.90;99.90;;;;;;5057102;28;20041;-82
2022/12/10 00:48:28;;;;;;;2.55;1.70;;;5.00;99.90;;;;;;5054272;28;20025;-82
2022/12/10 00:51:00;;;;;;;0.85;0.85;;;5.00;99.90;;;;;;5050802;28;20128;-82
2022/12/10 00:53:27;;;;;;;0.95;0.95;;;5.10;99.90;;;;;;5048987;28;20086;-82
2022/12/10 00:55:52;;;;;;;;;;;5.10;99.90;;;;;;5051569;28;20062;-82
2022/12/10 00:58:19;;;;;;;0.20;0.20;;;5.10;99.90;;;;;;5047556;28;20392;-83
2022/12/10 01:00:44;;;;;;;1.40;1.30;;;5.10;99.90;;;;;;5058512;28;20055;-82
2022/12/10 01:03:10;;;;;;;1.95;1.85;;;5.00;99.90;;;;;;5047898;28;20385;-82
2022/12/10 01:05:36;;;;;;;1.30;1.30;;;5.00;99.90;;;;;;5048627;28;20045;-82
2022/12/10 01:08:01;;;;;;;4.13;2.78;;;5.00;99.90;;;;;;5066370;28;20249;-82
2022/12/10 01:10:27;;;;;;;1.25;1.15;;;4.90;99.90;;;;;;5048432;28;20064;-82
2022/12/10 01:12:53;;;;;;;1.92;1.80;;;4.80;99.90;;;;;;5052083;28;20386;-82
2022/12/10 01:15:18;;;;;;;1.67;1.40;;;5.00;99.90;;;;;;5049733;28;20017;-83
2022/12/10 01:17:44;;;;;;;1.08;1.02;;;4.80;99.90;;;;;;5054756;28;20029;-82
2022/12/10 01:20:10;;;;;;;2.30;0.65;;;4.50;99.90;;;;;;5047794;28;20401;-82
2022/12/10 01:22:36;;;;;;;3.22;1.05;;;4.80;99.90;;;;;;5053460;28;20037;-83
2022/12/10 01:25:01;;;;;;;0.60;0.60;;;4.70;99.90;;;;;;5049219;28;20056;-83
2022/12/10 01:27:27;;;;;;;1.15;1.05;;;4.80;99.90;;;;;;5058053;28;20047;-83
2022/12/10 01:29:53;;;;;;;11.00;2.15;;;4.80;99.90;;;;;;5050322;28;20033;-82
2022/12/10 01:32:18;;;;;;;1.27;1.15;;;4.80;99.90;;;;;;5053848;28;20028;-83
2022/12/10 01:34:44;;;;;;;1.58;1.48;;;4.70;99.90;;;;;;5055412;28;20912;-82
2022/12/10 01:37:10;;;;;;;0.65;0.65;;;4.50;99.90;;;;;;5057880;28;20029;-83
2022/12/10 01:39:37;;;;;;;0.47;0.47;;;4.40;99.90;;;;;;5051858;28;20036;-83
2022/12/10 01:42:03;;;;;;;0.77;0.77;;;4.60;99.90;;;;;;5054669;28;20055;-82
2022/12/10 01:44:28;;;;;;;1.25;1.17;;;4.60;99.90;;;;;;5059677;28;20359;-83
2022/12/10 01:46:56;;;;;;;2.35;1.00;;;4.40;99.90;;;;;;5053857;28;20175;-82
2022/12/10 01:49:32;;;;;;;2.03;1.83;;;4.30;99.90;;;;;;5051234;28;20077;-82
2022/12/10 01:51:58;;;;;;;11.20;1.58;;;4.30;99.90;;;;;;5057257;28;20596;-82
2022/12/10 01:54:28;;;;;;;0.70;0.63;;;4.40;99.90;;;;;;5059274;28;20213;-84
2022/12/10 01:57:00;;;;;;;0.63;0.63;;;4.40;99.90;;;;;;5052255;28;20688;-82
2022/12/10 01:59:27;;;;;;;0.43;0.43;;;4.50;99.90;;;;;;5059127;28;20040;-83
2022/12/10 02:02:27;;;;;;;0.85;0.85;;;4.40;99.90;;;;;;5063830;28;20036;-84
2022/12/10 02:05:05;;;;;;;1.80;1.70;;;4.30;99.90;;;;;;5057191;28;20114;-83
2022/12/10 02:07:48;;;;;;;2.83;2.38;;;4.30;99.90;;;;;;5067589;28;20102;-82
2022/12/10 02:10:23;;;;;;;1.75;1.23;;;4.30;99.90;;;;;;5051892;28;20727;-80
2022/12/10 02:12:54;;;;;;;1.77;1.67;;;4.40;99.90;;;;;;5057128;28;20036;-79
2022/12/10 02:15:27;;;;;;;4.85;3.28;;;4.20;99.90;;;;;;5051442;28;20128;-80
2022/12/10 02:17:59;;;;;;;2.10;1.92;;;4.20;99.90;;;;;;5063977;28;20028;-80
2022/12/10 02:20:54;;;;;;;1.45;1.38;;;4.20;99.90;;;;;;5065789;28;20029;-81
2022/12/10 02:23:37;;;;;;;2.13;1.98;;;4.20;99.90;;;;;;5064932;28;20151;-80
2022/12/10 02:26:12;;;;;;;3.20;2.38;;;4.20;99.90;;;;;;5065604;28;20040;-81
2022/12/10 02:29:13;;;;;;;1.55;1.42;;;4.10;99.90;;;;;;5055644;28;20136;-80
2022/12/10 02:31:44;;;;;;;1.95;1.45;;;4.20;99.90;;;;;;5043177;28;20095;-80
2022/12/10 02:34:12;;;;;;;2.22;2.13;;;4.20;99.90;;;;;;5067736;28;20020;-80
2022/12/10 02:36:41;;;;;;;1.13;1.10;;;3.90;99.90;;;;;;5060987;28;20017;-81
2022/12/10 02:39:11;;;;;;;1.20;1.13;;;3.80;99.90;;;;;;5066194;28;20522;-82
2022/12/10 02:41:46;;;;;;;2.97;1.48;;;3.80;99.90;;;;;;5059669;28;20710;-81
2022/12/10 02:44:14;;;;;;;1.50;0.88;;;3.60;99.90;;;;;;5060276;28;20036;-82
2022/12/10 02:46:42;;;;;;;2.40;1.65;;;3.70;99.90;;;;;;5051171;28;20530;-81
2022/12/10 02:49:11;;;;;;;0.77;0.77;;;3.80;99.90;;;;;;5057822;28;20025;-82
2022/12/10 02:51:37;;;;;;;1.50;1.40;;;3.80;99.90;;;;;;5057784;28;20514;-81
2022/12/10 02:54:06;;;;;;;4.68;1.45;;;3.70;99.90;;;;;;5061179;28;20055;-82
2022/12/10 02:56:40;;;;;;;2.05;1.92;;;3.90;99.90;;;;;;5054137;28;20028;-82
2022/12/10 02:59:24;;;;;;;1.15;1.15;;;3.80;99.90;;;;;;5062008;28;20400;-81
2022/12/10 03:02:06;;;;;;;1.23;1.23;;;3.80;99.90;;;;;;5065048;28;20061;-80
2022/12/10 03:04:51;;;;;;;2.97;1.48;;;3.70;99.90;;;;;;5063468;28;20043;-81
2022/12/10 03:07:33;;;;;;;0.63;0.63;;;3.50;99.90;;;;;;5063830;28;20033;-80
2022/12/10 03:10:22;;;;;;;2.30;0.90;;;3.60;99.90;;;;;;5051664;28;20115;-80
2022/12/10 03:12:54;;;;;;;0.30;0.30;;;3.80;99.90;;;;;;5063514;28;20021;-80
2022/12/10 03:15:23;;;;;;;1.23;1.10;;;3.70;99.90;;;;;;5055298;28;20029;-80
2022/12/10 03:17:51;;;;;;;2.00;0.82;;;3.70;99.90;;;;;;5058558;28;20135;-80
2022/12/10 03:20:17;;;;;;;0.73;0.73;;;3.60;99.90;;;;;;5061866;28;20496;-81
2022/12/10 03:22:46;;;;;;;1.02;1.00;;;3.70;99.90;;;;;;5055157;28;20035;-80
2022/12/10 03:25:17;;;;;;;0.50;0.50;;;3.50;99.90;;;;;;5053721;28;20144;-80
2022/12/10 03:27:45;;;;;;;1.17;0.80;;;3.70;99.90;;;;;;5051504;28;20036;-79
2022/12/10 03:30:11;;;;;;;0.77;0.77;;;3.60;99.90;;;;;;5060825;28;20032;-80
2022/12/10 03:32:37;;;;;;;0.55;0.55;;;3.70;99.90;;;;;;5055664;28;20027;-80
2022/12/10 03:35:05;;;;;;;0.80;0.80;;;3.70;99.90;;;;;;5054972;28;20048;-80
2022/12/10 03:37:32;;;;;;;0.75;0.75;;;3.60;99.90;;;;;;5056642;28;20112;-81
2022/12/10 03:39:58;;;;;;;0.35;0.35;;;3.60;99.90;;;;;;5059637;28;20044;-81
2022/12/10 03:42:24;;;;;;;0.88;0.88;;;3.70;99.90;;;;;;5054191;28;20047;-81
2022/12/10 03:44:51;;;;;;;0.85;0.85;;;3.60;99.90;;;;;;5060732;28;20024;-81
2022/12/10 03:47:17;;;;;;;;;;;3.70;99.90;;;;;;5059089;28;20036;-80
2022/12/10 03:49:43;;;;;;;0.63;0.63;;;3.60;99.90;;;;;;5054915;28;20061;-79
2022/12/10 03:52:09;;;;;;;0.68;0.68;;;3.60;99.90;;;;;;5054936;28;20108;-79
2022/12/10 03:54:35;;;;;;;0.55;0.55;;;3.80;99.90;;;;;;5055046;28;20875;-81
2022/12/10 03:57:01;;;;;;;0.77;0.77;;;3.70;99.90;;;;;;5060713;28;20025;-83
2022/12/10 03:59:27;;;;;;;5.45;1.80;;;3.60;99.90;;;;;;5064168;28;20029;-82
2022/12/10 04:01:53;;;;;;;0.55;0.55;;;3.70;99.90;;;;;;5064528;28;20024;-82
2022/12/10 04:04:19;;;;;;;0.85;0.85;;;3.70;99.90;;;;;;5065631;28;20086;-82
2022/12/10 04:06:45;;;;;;;1.13;0.80;;;3.70;99.90;;;;;;5073952;28;20519;-80
2022/12/10 04:09:13;;;;;;;1.38;0.63;;;3.70;99.90;;;;;;5056954;28;20088;-81
2022/12/10 04:11:38;;;;;;;3.72;2.30;;;3.60;99.90;;;;;;5059852;28;20099;-81
2022/12/10 04:16:48;;;;;;;8.07;1.58;;;3.80;99.90;;;;;;5056999;28;20035;-80
2022/12/10 04:19:16;;;;;;;0.45;0.45;;;3.80;99.90;;;;;;5063735;28;20029;-80
2022/12/10 04:27:25;;;;;;;1.58;1.48;;;3.80;99.90;;;;;;5060821;28;20051;-81
2022/12/10 04:29:51;;;;;;;0.25;0.22;;;3.90;99.90;;;;;;5057496;28;20028;-81
2022/12/10 04:32:18;;;;;;;1.20;1.10;;;3.90;99.90;;;;;;5059600;28;20072;-81
2022/12/10 04:34:43;;;;;;;0.63;0.63;;;3.60;99.90;;;;;;5059660;28;20541;-81
2022/12/10 04:37:11;;;;;;;1.65;1.40;;;3.70;99.90;;;;;;5057205;28;20310;-81
2022/12/10 04:39:37;;;;;;;1.55;1.48;;;3.80;99.90;;;;;;5049481;28;20783;-81
2022/12/10 04:42:03;;;;;;;0.60;0.45;;;3.70;99.90;;;;;;5052018;28;20057;-81
2022/12/10 04:44:29;;;;;;;1.20;1.00;;;3.70;99.90;;;;;;5059131;28;20033;-82
2022/12/10 04:46:55;;;;;;;0.40;0.40;;;3.50;99.90;;;;;;5060138;28;20709;-81
2022/12/10 04:49:21;;;;;;;1.02;0.93;;;3.50;99.90;;;;;;5061885;28;20045;-81
2022/12/10 04:51:47;;;;;;;0.47;0.47;;;3.30;99.90;;;;;;5056835;28;20586;-81
2022/12/10 04:54:14;;;;;;;3.55;1.13;;;3.50;99.90;;;;;;5052040;28;20037;-81
2022/12/10 04:56:40;;;;;;;;;;;3.50;99.90;;;;;;5066844;28;20032;-81
2022/12/10 04:59:06;;;;;;;1.00;1.00;;;3.50;99.90;;;;;;5056909;28;19913;-82
2022/12/10 05:01:33;;;;;;;0.47;0.47;;;3.60;99.90;;;;;;5056355;28;20028;-81
2022/12/10 05:04:01;;;;;;;0.17;0.17;;;3.60;99.90;;;;;;5064822;28;20697;-81
2022/12/10 05:06:27;;;;;;;2.85;2.20;;;3.60;99.90;;;;;;5054869;28;20782;-81
2022/12/10 05:08:54;;;;;;;0.30;0.30;;;3.60;99.90;;;;;;5054296;28;20032;-81
2022/12/10 05:11:22;;;;;;;2.35;1.02;;;3.50;99.90;;;;;;5064811;28;20021;-82
2022/12/10 05:13:48;;;;;;;0.70;0.70;;;3.50;99.90;;;;;;5064875;28;20029;-81
2022/12/10 05:16:17;;;;;;;1.95;1.08;;;3.40;99.90;;;;;;5050039;28;20455;-81
2022/12/10 05:18:42;;;;;;;0.38;0.38;;;3.70;99.90;;;;;;5054618;28;20099;-81
2022/12/10 05:21:12;;;;;;;0.10;0.10;;;3.60;99.90;;;;;;5050375;28;20767;-80
2022/12/10 05:23:40;;;;;;;0.65;0.65;;;3.70;99.90;;;;;;5060491;28;20024;-81
2022/12/10 05:26:07;;;;;;;0.45;0.45;;;3.60;99.90;;;;;;5051507;28;20054;-82
2022/12/10 05:28:54;;;;;;;0.60;0.60;;;3.70;99.90;;;;;;5062656;28;20085;-81
2022/12/10 05:31:29;;;;;;;0.20;0.20;;;3.60;99.90;;;;;;5052582;28;20039;-84
2022/12/10 05:33:56;;;;;;;0.73;0.73;;;3.70;99.90;;;;;;5063334;28;20047;-83
2022/12/10 05:36:23;;;;;;;;;;;3.70;99.90;;;;;;5057455;28;20039;-85
2022/12/10 05:38:49;;;;;;;0.43;0.43;;;3.70;99.90;;;;;;5057979;28;20627;-84
2022/12/10 05:41:18;;;;;;;1.20;1.17;;;3.60;99.90;;;;;;5060656;28;20900;-83
2022/12/10 05:43:45;;;;;;;0.90;0.90;;;3.60;99.90;;;;;;5066262;28;20025;-84
2022/12/10 05:46:17;;;;;;;0.13;0.13;;;3.60;99.90;;;;;;5057410;28;20040;-85
2022/12/10 05:48:43;;;;;;;1.27;1.17;;;3.60;99.90;;;;;;5059930;28;20025;-84
2022/12/10 05:51:15;;;;;;;0.85;0.85;;;3.30;99.90;;;;;;5063672;28;20498;-85
2022/12/10 05:53:41;;;;;;;0.35;0.35;;;3.40;99.90;;;;;;5054612;28;20155;-84
2022/12/10 05:56:18;;;;;;;0.22;0.22;;;3.40;99.90;;;;;;5055945;28;20021;-84
2022/12/10 05:58:45;;;;;;;0.30;0.30;;;3.50;99.90;;;;;;5062130;28;20050;-84
2022/12/10 06:01:13;;;;;;;0.32;0.32;;;3.40;99.90;;;;;;5059162;28;20041;-84
2022/12/10 06:03:39;;;;;;;1.08;1.00;;;3.30;99.90;;;;;;5053627;28;20472;-84
2022/12/10 06:06:05;;;;;;;0.38;0.38;;;3.30;99.90;;;;;;5057642;28;20056;-82
2022/12/10 06:08:32;;;;;;;0.80;0.57;;;3.20;99.90;;;;;;5051914;28;20140;-84
2022/12/10 06:11:06;;;;;;;0.25;0.25;;;3.40;99.90;;;;;;5061637;28;20133;-84
2022/12/10 06:13:32;;;;;;;0.28;0.28;;;3.40;99.90;;;;;;5056055;28;20044;-85
2022/12/10 06:15:57;;;;;;;0.55;0.47;;;3.30;99.90;;;;;;5060921;28;20025;-84
2022/12/10 06:18:23;;;;;;;0.20;0.20;;;3.40;99.90;;;;;;5054787;28;20817;-82
2022/12/10 06:20:49;;;;;;;0.30;0.30;;;3.30;99.90;;;;;;5049916;28;20025;-83
2022/12/10 06:23:15;;;;;;;0.10;0.10;;;3.40;99.90;;;;;;5047961;28;20106;-82
2022/12/10 06:25:41;;;;;;;0.57;0.57;;;3.20;99.90;;;;;;5057452;28;20093;-81
2022/12/10 06:28:08;;;;;;;0.25;0.20;;;3.30;99.90;;;;;;5052056;28;20100;-80
2022/12/10 06:30:34;;;;;;;0.13;0.13;;;3.30;99.90;;;;;;5062064;28;20067;-80
2022/12/10 06:33:00;;;;;;;0.20;0.20;;;3.40;99.90;;;;;;5064876;28;20084;-83
2022/12/10 06:35:26;;;;;;;0.35;0.35;;;3.40;99.90;;;;;;5061614;28;20551;-83
2022/12/10 06:37:52;;;;;;;0.38;0.38;;;3.50;99.90;;;;;;5064588;28;20086;-82
2022/12/10 06:40:18;;;;;;;0.57;0.57;;;3.40;99.90;;;;;;5064881;28;20045;-82
2022/12/10 06:42:44;;;;;;;1.20;0.68;;;3.40;99.90;;;;;;5067708;28;20119;-83
2022/12/10 06:45:10;;;;;;;0.52;0.52;;;3.40;99.90;;;;;;5066111;28;20111;-85
2022/12/10 06:47:36;;;;;;;0.20;0.20;;;3.20;99.90;;;;;;5066824;28;20079;-85
2022/12/10 06:50:02;;;;;;;0.38;0.38;;;3.20;99.90;;;;;;5064052;28;20032;-84
2022/12/10 06:52:28;;;;;;;0.65;0.40;;;3.20;99.90;;;;;;5060227;28;20021;-85
2022/12/10 06:54:55;;;;;;;0.30;0.30;;;3.00;99.90;;;;;;5057480;28;20040;-84
2022/12/10 06:57:21;;;;;;;1.02;0.63;;;2.80;99.90;;;;;;5069735;28;20848;-86
2022/12/10 06:59:47;;;;;;;3.57;1.80;;;3.00;99.90;;;;;;5051394;28;20043;-85
2022/12/10 07:02:12;;;;;;;0.25;0.25;;;2.80;99.90;;;;;;5060820;28;20391;-80
2022/12/10 07:04:38;;;;;;;0.25;0.25;;;2.80;99.90;;;;;;5057348;28;20048;-85
2022/12/10 07:07:06;;;;;;;1.45;1.35;;;3.10;99.90;;;;;;5060336;28;20044;-80
2022/12/10 07:09:32;;;;;;;0.35;0.35;;;3.10;99.90;;;;;;5056485;28;20032;-81
2022/12/10 07:11:58;;;;;;;0.47;0.47;;;3.10;99.90;;;;;;5063616;28;20025;-81
2022/12/10 07:14:24;;;;;;;0.30;0.30;;;3.00;99.90;;;;;;5063842;28;20090;-81
2022/12/10 07:16:50;;;;;;;0.50;0.50;;;2.80;99.90;;;;;;5066378;28;20090;-80
2022/12/10 07:19:15;;;;;;;0.82;0.82;;;2.90;99.90;;;;;;5068947;28;20028;-80
2022/12/10 07:21:43;;;;;;;0.25;0.25;;;3.00;99.90;;;;;;5064411;28;20492;-82
2022/12/10 07:24:17;;;;;;;1.08;1.08;;;3.00;99.90;;;;;;5059827;28;20035;-80
2022/12/10 07:26:45;;;;;;;0.03;0.03;;;3.00;99.90;;;;;;5063570;28;20102;-81
2022/12/10 07:29:20;;;;;;;0.45;0.45;;;2.90;99.90;;;;;;5065202;28;20039;-81
2022/12/10 07:31:47;;;;;;;0.40;0.40;;;3.00;99.90;;;;;;5061676;28;20086;-78
2022/12/10 07:34:13;;;;;;;1.17;1.17;;;3.00;99.90;;;;;;5062866;28;20025;-79
2022/12/10 07:36:39;;;;;;;0.20;0.20;;;3.00;99.90;;;;;;5058613;28;20405;-78
2022/12/10 07:39:07;;;;;;;0.20;0.20;;;2.90;99.90;;;;;;5060676;28;20202;-82
2022/12/10 07:41:33;;;;;;;0.82;0.82;;;2.90;99.90;;;;;;5064002;28;20067;-82
2022/12/10 07:43:59;;;;;;;1.77;1.50;;;3.00;99.90;;;;;;5060671;28;20035;-83
2022/12/10 07:46:28;;;;;;;0.30;0.23;;;3.00;99.90;;;;;;5051035;28;20029;-81
2022/12/10 07:48:54;;;;;;;0.20;0.20;;;2.80;99.90;;;;;;5061375;28;20064;-81
2022/12/10 07:51:21;;;;;;;0.43;0.40;;;2.90;99.90;;;;;;5057471;28;20028;-81
2022/12/10 07:53:47;;;;;;;0.55;0.55;;;2.90;99.90;;;;;;5057264;28;20290;-82
2022/12/10 07:56:13;;;;;;;0.80;0.80;;;2.90;99.90;;;;;;5050580;28;20051;-81
2022/12/10 07:58:45;;;;;;;0.57;0.57;;;2.90;99.90;;;;;;5055371;28;20032;-84
2022/12/10 08:01:18;;;;;;;0.20;0.20;;;2.70;99.90;;;;;;5050658;28;20025;-80
2022/12/10 08:03:44;;;;;;;0.10;0.10;;;2.70;99.90;;;;;;5054758;28;20066;-81
2022/12/10 08:06:16;;;;;;;3.20;0.70;;;2.50;99.90;;;;;;5055456;28;20058;-79
2022/12/10 08:08:43;;;;;;;1.23;1.15;;;2.50;99.90;;;;;;5050879;28;20074;-81
2022/12/10 08:11:10;;;;;;;0.17;0.17;;;2.40;99.90;;;;;;5049904;28;20136;-81
2022/12/10 08:13:36;;;;;;;0.10;0.10;;;2.20;99.90;;;;;;5054711;28;20025;-80
2022/12/10 08:16:09;;;;;;;0.50;0.50;;;2.30;99.90;;;;;;5053105;28;20033;-80
2022/12/10 08:18:35;;;;;;;1.58;1.48;;;2.10;99.90;;;;;;5060765;28;20155;-80
2022/12/10 08:21:10;;;;;;;0.43;0.43;;;2.30;99.90;;;;;;5062892;28;20596;-82
2022/12/10 08:23:36;;;;;;;0.57;0.57;;;2.10;99.90;;;;;;5060696;28;20029;-80
2022/12/10 08:26:06;;;;;;;0.20;0.20;;;2.20;99.90;;;;;;5056596;28;20466;-81
2022/12/10 08:28:32;;;;;;;1.08;1.05;;;2.10;99.90;;;;;;5058674;28;20041;-78
2022/12/10 08:30:58;;;;;;;0.40;0.40;;;1.90;99.90;;;;;;5065015;28;20031;-80
2022/12/10 08:33:24;;;;;;;1.00;0.77;;;2.00;99.90;;;;;;5066131;28;20028;-78
2022/12/10 08:35:50;;;;;;;0.10;0.10;;;2.00;99.90;;;;;;5065687;28;20028;-79
2022/12/10 08:38:16;;;;;;;2.00;0.75;;;1.90;99.90;;;;;;5057514;28;20029;-81
2022/12/10 08:40:42;;;;;;;0.10;0.10;;;2.00;99.90;;;;;;5061486;28;20104;-80
2022/12/10 08:43:08;;;;;;;0.50;0.50;;;2.30;99.90;;;;;;5059453;28;20091;-80
2022/12/10 08:45:34;;;;;;;0.45;0.45;;;2.00;99.90;;;;;;5065151;28;20283;-78
2022/12/10 08:48:01;;;;;;;0.20;0.20;;;2.10;99.90;;;;;;5055067;28;20638;-78
2022/12/10 08:50:27;;;;;;;0.10;0.10;;;2.60;99.90;;;;;;5062814;28;20406;-78
2022/12/10 08:52:53;;;;;;;0.40;0.40;;;2.80;99.90;;;;;;5062267;28;20105;-79
2022/12/10 08:55:18;;;;;;;0.22;0.22;;;3.20;99.90;;;;;;5065071;28;20381;-85
2022/12/10 08:57:44;;;;;;;0.20;0.20;;;3.40;99.90;;;;;;5057014;28;20024;-80
2022/12/10 09:00:11;;;;;;;0.25;0.25;;;3.10;99.90;;;;;;5056180;28;20036;-80
2022/12/10 09:02:37;;;;;;;0.13;0.13;;;3.50;99.80;;;;;;5054070;28;20036;-80
2022/12/10 09:05:03;;;;;;;0.30;0.30;;;3.70;99.90;;;;;;5055681;28;20044;-82
2022/12/10 09:07:29;;;;;;;0.13;0.13;;;4.00;99.20;;;;;;5052153;28;20336;-81
2022/12/10 09:09:55;;;;;;;0.70;0.70;;;4.00;99.20;;;;;;5052303;28;20040;-80
2022/12/10 09:12:20;;;;;;;2.08;1.98;;;3.90;98.80;;;;;;5051907;28;20060;-80
2022/12/10 09:14:46;;;;;;;0.40;0.40;;;4.10;99.10;;;;;;5050551;28;20021;-83
2022/12/10 09:17:12;;;;;;;1.17;0.98;;;4.20;97.30;;;;;;5058589;28;20796;-82
2022/12/10 09:19:37;;;;;;;1.15;1.10;;;3.90;97.20;;;;;;5059574;28;20032;-80
2022/12/10 09:22:03;;;;;;;4.95;2.40;;;3.70;97.20;;;;;;5063549;28;20075;-79
2022/12/10 09:24:29;;;;;;;0.20;0.20;;;4.00;96.90;;;;;;5061522;28;20040;-80
2022/12/10 09:26:54;;;;;;;0.22;0.22;;;3.90;97.90;;;;;;5064404;28;20036;-79
2022/12/10 09:29:20;;;;;;;0.10;0.10;;;4.00;97.60;;;;;;5059965;28;20571;-79
2022/12/10 09:31:50;;;;;;;0.10;0.10;;;4.10;96.00;;;;;;5065786;28;20060;-79
2022/12/10 09:34:16;;;;;;;0.70;0.63;;;3.70;95.20;;;;;;5053797;28;20731;-80
2022/12/10 09:36:42;;;;;;;0.50;0.50;;;3.60;94.40;;;;;;5065643;28;20032;-79
2022/12/10 09:39:07;;;;;;;0.65;0.65;;;3.60;94.50;;;;;;5063234;28;20498;-80
2022/12/10 09:41:33;;;;;;;0.15;0.15;;;3.60;94.40;;;;;;5064999;28;20045;-79
2022/12/10 09:44:16;;;;;;;0.10;0.10;;;3.30;94.70;;;;;;5063690;28;20734;-80
2022/12/10 09:46:53;;;;;;;0.60;0.60;;;3.40;95.30;;;;;;5061942;28;20039;-79
2022/12/10 09:49:54;;;;;;;0.20;0.20;;;3.50;94.00;;;;;;5064957;28;20486;-79
2022/12/10 09:52:24;;;;;;;1.38;0.40;;;3.50;95.30;;;;;;5056653;28;20035;-80
2022/12/10 09:55:03;;;;;;;0.80;0.70;;;3.70;94.80;;;;;;5062419;28;20024;-79
2022/12/10 09:57:38;;;;;;;0.22;0.22;;;3.50;94.00;;;;;;5063741;28;20090;-80
2022/12/10 10:00:17;;;;;;;1.27;1.20;;;3.50;95.00;;;;;;5058295;28;20750;-79
2022/12/10 10:02:43;;;;;;;1.02;1.00;;;3.60;94.10;;;;;;5060293;28;20101;-80
2022/12/10 10:05:13;;;;;;;0.77;0.77;;;3.50;94.00;;;;;;5061464;28;20164;-80
2022/12/10 10:08:03;;;;;;;0.22;0.22;;;4.00;95.00;;;;;;5066627;28;20028;-81
2022/12/10 10:10:35;;;;;;;0.10;0.10;;;4.00;95.30;;;;;;5055601;28;20036;-80
2022/12/10 10:13:13;;;;;;;0.20;0.20;;;4.10;94.00;;;;;;5057262;28;20036;-80
2022/12/10 10:15:43;;;;;;;0.25;0.25;;;4.00;95.00;;;;;;5061518;28;20028;-81
2022/12/10 10:18:46;;;;;;;0.57;0.57;;;4.10;93.90;;;;;;5067801;28;20312;-80
2022/12/10 10:21:21;;;;;;;0.17;0.17;;;4.20;94.50;;;;;;5061853;28;20031;-80
2022/12/10 10:23:47;;;;;;;0.25;0.25;;;4.30;94.40;;;;;;5059495;28;20025;-80
2022/12/10 10:26:13;;;;;;;0.10;0.10;;;4.60;94.40;;;;;;5062083;28;20033;-80
2022/12/10 10:28:41;;;;;;;0.30;0.30;;;4.40;93.60;;;;;;5063767;28;20055;-80
2022/12/10 10:31:21;;;;;;;0.50;0.50;;;4.10;93.30;;;;;;5066549;28;20032;-80
2022/12/10 10:33:56;;;;;;;0.20;0.20;;;4.00;92.90;;;;;;5060591;28;20039;-81
2022/12/10 10:36:28;;;;;;;0.10;0.10;;;3.40;94.50;;;;;;5055493;28;20024;-81
2022/12/10 10:38:54;;;;;;;0.13;0.13;;;3.50;94.50;;;;;;5054803;28;20039;-81
2022/12/10 10:41:20;;;;;;;0.40;0.40;;;3.40;93.10;;;;;;5055929;28;20037;-82
2022/12/10 10:43:49;;;;;;;0.20;0.20;;;3.70;94.10;;;;;;5054000;28;20033;-81
2022/12/10 10:46:20;;;;;;;0.20;0.20;;;3.90;94.20;;;;;;5049761;28;20033;-81
2022/12/10 10:48:46;;;;;;;1.35;0.77;;;3.50;92.30;;;;;;5056020;28;20028;-80
2022/12/10 10:51:12;;;;;;;0.10;0.10;;;3.30;92.60;;;;;;5053163;28;20030;-81
2022/12/10 10:53:43;;;;;;;0.30;0.30;;;3.50;92.70;;;;;;5061155;28;20053;-81
2022/12/10 10:56:16;;;;;;;1.55;0.28;;;3.70;92.40;;;;;;5050321;28;20039;-80
2022/12/10 10:59:02;;;;;;;0.65;0.65;;;3.50;92.00;;;;;;5060652;28;20024;-80
2022/12/10 11:01:43;;;;;;;0.60;0.60;;;3.90;93.10;;;;;;5055068;28;20929;-81
2022/12/10 11:04:09;;;;;;;0.20;0.20;;;3.60;92.00;;;;;;5078610;28;20486;-81
2022/12/10 11:06:35;;;;;;;0.60;0.60;;;3.80;92.70;;;;;;5065036;28;20083;-81
2022/12/10 11:09:01;;;;;;;0.20;0.20;;;3.70;94.70;;;;;;5057626;28;20476;-81
2022/12/10 11:11:40;;;;;;;0.10;0.10;;;3.80;95.10;;;;;;5054349;28;20029;-81
2022/12/10 11:14:27;;;;;;;0.73;0.73;;;3.90;94.60;;;;;;5059853;28;20082;-81
2022/12/10 11:17:11;;;;;;;0.52;0.52;;;4.40;93.80;;;;;;5062493;28;20104;-81
2022/12/10 11:19:59;;;;;;;0.35;0.35;;;4.30;93.00;;;;;;5060787;28;20028;-81
2022/12/10 11:22:32;;;;;;;0.93;0.85;;;4.10;93.70;;;;;;5055749;28;20472;-81
2022/12/10 11:24:59;;;;;;;0.52;0.52;;;4.00;93.10;;;;;;5060120;28;20032;-81
2022/12/10 11:27:37;;;;;;;0.20;0.20;;;4.10;94.30;;;;;;5065457;28;20072;-81
2022/12/10 11:30:12;;;;;;;0.13;0.13;;;4.20;94.20;;;;;;5061821;28;20029;-82
2022/12/10 11:32:53;;;;;;;0.65;0.52;;;3.70;94.20;;;;;;5064305;28;20039;-82
2022/12/10 11:35:24;;;;;;;0.75;0.75;;;4.10;94.20;;;;;;5061859;28;20039;-81
2022/12/10 11:38:24;;;;;;;0.30;0.30;;;4.10;93.80;;;;;;5052471;28;20541;-82
2022/12/10 11:40:57;;;;;;;0.30;0.30;;;4.00;93.30;;;;;;5052929;28;20060;-82
2022/12/10 11:43:47;;;;;;;0.20;0.20;;;4.00;94.60;;;;;;5056082;28;20044;-83
2022/12/10 11:46:28;;;;;;;0.63;0.63;;;3.90;93.10;;;;;;5061682;28;20491;-82
2022/12/10 11:49:05;;;;;;;0.50;0.50;;;4.10;94.10;;;;;;5061680;28;20122;-82
2022/12/10 11:51:55;;;;;;;0.15;0.15;;;4.20;94.20;;;;;;5061775;28;20834;-82
2022/12/10 11:54:39;;;;;;;0.85;0.57;;;4.20;95.20;;;;;;5062722;28;20128;-81
2022/12/10 11:57:30;;;;;;;0.30;0.30;;;4.00;93.40;;;;;;5060622;28;20021;-80
2022/12/10 12:00:16;;;;;;;0.30;0.30;;;3.60;92.30;;;;;;5054031;28;20496;-79
2022/12/10 12:03:05;;;;;;;0.20;0.20;;;3.40;92.90;;;;;;5061030;28;20028;-79
2022/12/10 12:05:46;;;;;;;0.20;0.20;;;3.20;92.50;;;;;;5061456;28;20094;-79
2022/12/10 12:08:31;;;;;;;0.15;0.15;;;3.30;93.60;;;;;;5055739;28;20033;-78
2022/12/10 12:11:11;;;;;;;0.20;0.20;;;3.50;92.90;;;;;;5059647;28;20029;-79
2022/12/10 12:14:15;;;;;;;0.22;0.22;;;3.80;93.70;;;;;;5058458;28;20565;-79
2022/12/10 12:16:47;;;;;;;0.13;0.13;;;3.80;93.90;;;;;;5056324;28;20032;-78
2022/12/10 12:19:34;;;;;;;0.20;0.20;;;3.70;93.40;;;;;;5053884;28;20029;-79
2022/12/10 12:22:15;;;;;;;0.10;0.10;;;3.60;92.90;;;;;;5052613;28;20025;-79
2022/12/10 12:24:46;;;;;;;1.10;0.55;;;3.50;92.50;;;;;;5050548;28;20025;-78
2022/12/10 12:27:28;;;;;;;0.15;0.15;;;3.50;91.60;;;;;;5053792;28;20036;-80
2022/12/10 12:30:07;;;;;;;0.20;0.20;;;3.50;90.90;;;;;;5053698;28;20468;-80
2022/12/10 12:33:03;;;;;;;0.70;0.70;;;3.60;92.20;;;;;;5058086;28;20025;-82
2022/12/10 12:35:30;;;;;;;;;;;3.50;91.30;;;;;;5059442;28;20034;-81
2022/12/10 12:38:34;;;;;;;0.35;0.35;;;3.60;92.70;;;;;;5055574;28;19919;-81
2022/12/10 12:41:10;;;;;;;0.50;0.50;;;3.60;93.10;;;;;;5063882;28;20067;-80
2022/12/10 12:43:36;;;;;;;3.20;2.30;;;3.80;93.80;;;;;;5055859;28;20028;-80
2022/12/10 12:46:09;;;;;;;3.13;1.13;;;3.80;92.70;;;;;;5060609;28;20594;-80
2022/12/10 12:48:55;;;;;;;0.20;0.20;;;3.90;93.60;;;;;;5057359;28;20029;-80
2022/12/10 12:51:27;;;;;;;1.00;1.00;;;3.60;92.50;;;;;;5076759;28;20025;-80
2022/12/10 12:53:53;;;;;;;0.20;0.20;;;3.40;90.10;;;;;;5062242;28;20024;-80
2022/12/10 12:57:00;;;;;;;0.10;0.10;;;3.50;90.70;;;;;;5063365;28;20395;-80
2022/12/10 12:59:57;;;;;;;0.08;0.08;;;3.80;91.60;;;;;;5054563;28;20135;-83
2022/12/10 13:02:41;;;;;;;1.55;0.55;;;3.60;91.50;;;;;;5050452;28;20714;-81
2022/12/10 13:05:14;;;;;;;0.65;0.60;;;3.40;92.60;;;;;;5055593;28;20101;-80
2022/12/10 13:07:40;;;;;;;0.43;0.43;;;3.50;92.50;;;;;;5059869;28;20039;-81
2022/12/10 13:10:05;;;;;;;0.40;0.40;;;3.40;91.00;;;;;;5058916;28;20044;-80
2022/12/10 13:12:41;;;;;;;0.93;0.90;;;3.30;91.10;;;;;;5061645;28;20114;-81
2022/12/10 13:15:35;;;;;;;0.38;0.38;;;3.40;92.70;;;;;;5059118;28;20071;-81
2022/12/10 13:18:10;;;;;;;0.90;0.90;;;3.50;93.00;;;;;;5046390;28;20182;-81
2022/12/10 13:21:10;;;;;;;0.45;0.45;;;3.60;93.30;;;;;;5056742;28;20469;-81
2022/12/10 13:23:51;;;;;;;0.30;0.30;;;3.60;92.90;;;;;;5051428;28;20029;-80
2022/12/10 13:26:28;;;;;;;0.63;0.52;;;3.60;92.90;;;;;;5060625;28;20049;-81